createdAt,value
2023-06-19T00:04:34.097Z,8.43
2023-06-19T00:06:07.606Z,8.75
2023-06-19T00:07:39.867Z,8.70
2023-06-19T00:09:12.058Z,8.60
2023-06-19T00:10:44.291Z,9.55
2023-06-19T00:12:16.465Z,9.02
2023-06-19T00:13:48.661Z,9.20
2023-06-19T00:15:20.826Z,8.93
2023-06-19T00:16:53.080Z,8.45
2023-06-19T00:20:00.617Z,8.32
2023-06-19T00:21:33.075Z,8.90
2023-06-19T00:23:05.312Z,8.23
2023-06-19T00:24:37.664Z,8.70
2023-06-19T00:26:10.452Z,8.23
2023-06-19T00:27:42.604Z,8.25
2023-06-19T00:29:15.504Z,7.68
2023-06-19T00:30:47.747Z,8.27
2023-06-19T00:32:20.126Z,7.97
2023-06-19T00:33:52.358Z,7.83
2023-06-19T00:35:24.803Z,7.50
2023-06-19T00:36:57.684Z,8.07
2023-06-19T00:38:29.970Z,8.13
2023-06-19T00:40:05.228Z,7.30
2023-06-19T00:41:37.740Z,8.45
2023-06-19T00:43:10.084Z,8.50
2023-06-19T00:44:42.360Z,7.57
2023-06-19T00:46:14.780Z,8.25
2023-06-19T00:47:47.335Z,8.15
2023-06-19T00:49:19.891Z,8.07
2023-06-19T00:50:52.382Z,8.30
2023-06-19T00:52:24.474Z,8.77
2023-06-19T00:53:56.670Z,8.20
2023-06-19T00:55:33.771Z,7.85
2023-06-19T00:57:06.420Z,8.23
2023-06-19T00:58:38.549Z,8.10
2023-06-19T01:00:13.827Z,8.10
2023-06-19T01:01:46.718Z,8.00
2023-06-19T01:03:19.231Z,7.20
2023-06-19T01:04:53.483Z,8.68
2023-06-19T01:06:29.932Z,7.88
2023-06-19T01:09:03.630Z,8.20
2023-06-19T01:10:40.583Z,7.85
2023-06-19T01:12:18.462Z,7.47
2023-06-19T01:13:59.532Z,7.63
2023-06-19T01:15:31.839Z,7.18
2023-06-19T01:17:04.579Z,7.88
2023-06-19T01:18:37.447Z,7.88
2023-06-19T01:20:12.543Z,7.55
2023-06-19T01:21:44.701Z,7.85
2023-06-19T01:23:17.283Z,8.15
2023-06-19T01:24:49.433Z,7.78
2023-06-19T01:26:29.310Z,7.10
2023-06-19T01:28:01.619Z,7.82
2023-06-19T01:29:33.793Z,7.72
2023-06-19T01:31:13.573Z,8.57
2023-06-19T01:33:08.268Z,7.60
2023-06-19T01:34:41.385Z,7.65
2023-06-19T01:37:46.587Z,6.82
2023-06-19T01:39:20.039Z,7.55
2023-06-19T01:40:54.337Z,7.90
2023-06-19T01:42:27.889Z,7.15
2023-06-19T01:44:00.990Z,7.30
2023-06-19T01:45:33.628Z,8.93
2023-06-19T01:47:11.602Z,7.38
2023-06-19T01:48:46.940Z,7.03
2023-06-19T01:50:19.150Z,7.70
2023-06-19T01:51:51.799Z,8.15
2023-06-19T01:53:24.220Z,8.48
2023-06-19T01:54:56.714Z,8.13
2023-06-19T01:56:29.313Z,8.00
2023-06-19T01:58:01.486Z,8.90
2023-06-19T01:59:33.589Z,7.68
2023-06-19T02:01:05.704Z,7.57
2023-06-19T02:02:38.578Z,7.70
2023-06-19T02:05:57.063Z,7.50
2023-06-19T02:07:29.316Z,7.32
2023-06-19T02:12:28.249Z,7.30
2023-06-19T02:14:08.139Z,7.30
2023-06-19T02:15:40.350Z,7.60
2023-06-19T02:22:19.840Z,7.15
2023-06-19T02:23:52.041Z,7.15
2023-06-19T02:25:24.279Z,7.55
2023-06-19T02:26:56.478Z,6.82
2023-06-19T02:28:28.621Z,6.90
2023-06-19T02:30:00.962Z,7.25
2023-06-19T02:31:33.068Z,6.93
2023-06-19T02:33:05.260Z,6.75
2023-06-19T02:34:37.492Z,7.75
2023-06-19T02:36:09.589Z,7.03
2023-06-19T02:39:19.764Z,6.68
2023-06-19T02:40:52.017Z,7.20
2023-06-19T02:42:24.140Z,6.65
2023-06-19T02:43:56.305Z,7.00
2023-06-19T02:45:31.371Z,6.00
2023-06-19T02:47:03.462Z,6.72
2023-06-19T02:48:36.138Z,6.88
2023-06-19T02:50:08.685Z,6.57
2023-06-19T02:51:42.364Z,6.70
2023-06-19T02:53:14.709Z,6.38
2023-06-19T02:54:46.942Z,6.20
2023-06-19T02:56:19.345Z,6.30
2023-06-19T02:57:51.577Z,6.93
2023-06-19T02:59:23.743Z,5.88
2023-06-19T03:00:56.497Z,6.75
2023-06-19T03:26:12.412Z,7.63
2023-06-19T03:27:44.717Z,5.77
2023-06-19T03:29:16.845Z,6.03
2023-06-19T03:30:49.003Z,5.90
2023-06-19T03:32:21.693Z,5.88
2023-06-19T03:33:53.888Z,6.25
2023-06-19T03:35:26.076Z,6.05
2023-06-19T03:36:58.242Z,6.40
2023-06-19T03:38:30.463Z,6.13
2023-06-19T03:40:02.588Z,6.25
2023-06-19T03:41:34.772Z,6.13
2023-06-19T03:43:07.004Z,6.57
2023-06-19T03:44:39.257Z,6.45
2023-06-19T03:46:11.507Z,6.70
2023-06-19T03:47:43.732Z,6.10
2023-06-19T03:49:15.868Z,6.68
2023-06-19T03:50:48.282Z,6.40
2023-06-19T03:52:20.528Z,6.43
2023-06-19T03:53:52.879Z,6.43
2023-06-19T03:55:25.161Z,6.50
2023-06-19T03:56:57.350Z,6.38
2023-06-19T03:58:29.471Z,7.10
2023-06-19T04:00:01.618Z,6.32
2023-06-19T04:01:33.892Z,7.15
2023-06-19T04:03:06.250Z,6.38
2023-06-19T04:04:38.536Z,7.13
2023-06-19T04:06:10.753Z,6.88
2023-06-19T04:07:43.083Z,6.45
2023-06-19T04:09:15.419Z,7.13
2023-06-19T04:10:50.006Z,6.50
2023-06-19T04:15:38.603Z,6.78
2023-06-19T04:17:10.862Z,7.15
2023-06-19T04:18:42.992Z,6.53
2023-06-19T04:20:15.742Z,6.32
2023-06-19T04:21:47.897Z,7.03
2023-06-19T04:23:20.146Z,7.00
2023-06-19T04:24:52.396Z,6.60
2023-06-19T04:26:25.992Z,6.80
2023-06-19T04:27:58.171Z,7.80
2023-06-19T04:29:33.068Z,7.45
2023-06-19T04:31:05.165Z,7.18
2023-06-19T04:32:37.529Z,6.93
2023-06-19T04:34:09.754Z,7.63
2023-06-19T04:35:42.058Z,7.88
2023-06-19T04:37:14.642Z,7.50
2023-06-19T04:38:46.839Z,7.18
2023-06-19T04:40:18.985Z,7.30
2023-06-19T04:41:51.295Z,7.05
2023-06-19T04:43:26.186Z,7.00
2023-06-19T04:45:00.652Z,7.18
2023-06-19T04:46:33.042Z,7.00
2023-06-19T04:48:05.759Z,6.80
2023-06-19T04:49:37.961Z,7.28
2023-06-19T04:51:10.205Z,6.53
2023-06-19T04:52:42.372Z,7.05
2023-06-19T04:54:14.679Z,7.60
2023-06-19T04:55:46.829Z,7.35
2023-06-19T04:57:19.012Z,7.32
2023-06-19T04:58:52.678Z,7.38
2023-06-19T05:00:25.493Z,7.32
2023-06-19T05:01:59.073Z,7.10
2023-06-19T05:05:03.962Z,7.25
2023-06-19T05:06:36.331Z,7.72
2023-06-19T05:08:08.480Z,7.57
2023-06-19T05:09:40.585Z,8.82
2023-06-19T05:11:12.758Z,7.80
2023-06-19T05:12:44.966Z,6.65
2023-06-19T05:14:17.330Z,7.07
2023-06-19T05:15:50.108Z,7.10
2023-06-19T05:17:22.361Z,7.05
2023-06-19T05:18:54.724Z,7.20
2023-06-19T05:20:27.085Z,7.30
2023-06-19T05:21:59.397Z,7.00
2023-06-19T05:23:31.550Z,6.78
2023-06-19T05:25:04.436Z,7.28
2023-06-19T05:26:38.127Z,7.43
2023-06-19T05:28:12.469Z,7.03
2023-06-19T05:29:44.647Z,6.65
2023-06-19T05:31:16.951Z,7.30
2023-06-19T05:32:49.240Z,6.57
2023-06-19T05:34:21.429Z,6.70
2023-06-19T05:35:55.435Z,6.80
2023-06-19T05:37:28.707Z,6.80
2023-06-19T05:40:35.957Z,6.07
2023-06-19T05:42:08.608Z,6.80
2023-06-19T05:43:40.844Z,5.95
2023-06-19T05:45:13.089Z,5.80
2023-06-19T05:46:45.310Z,6.07
2023-06-19T05:48:17.569Z,6.43
2023-06-19T05:49:50.221Z,5.53
2023-06-19T05:51:22.516Z,6.25
2023-06-19T05:52:54.695Z,5.57
2023-06-19T05:54:27.555Z,6.00
2023-06-19T05:56:00.042Z,5.82
2023-06-19T05:57:32.260Z,5.40
2023-06-19T05:59:04.501Z,5.53
2023-06-19T06:12:51.061Z,4.78
2023-06-19T06:14:23.421Z,4.60
2023-06-19T06:15:55.626Z,5.33
2023-06-19T06:17:27.875Z,5.22
2023-06-19T06:19:00.822Z,5.50
2023-06-19T06:20:33.169Z,5.20
2023-06-19T06:22:05.545Z,5.40
2023-06-19T06:23:37.769Z,5.10
2023-06-19T06:25:13.503Z,4.88
2023-06-19T06:26:46.631Z,4.90
2023-06-19T06:28:19.209Z,5.65
2023-06-19T06:29:51.364Z,5.15
2023-06-19T06:31:26.840Z,5.15
2023-06-19T06:32:59.660Z,5.88
2023-06-19T06:34:31.928Z,5.20
2023-06-19T06:36:05.207Z,5.35
2023-06-19T06:37:38.830Z,6.67
2023-06-19T06:39:12.250Z,4.43
2023-06-19T06:40:44.739Z,4.95
2023-06-19T06:42:17.701Z,5.20
2023-06-19T06:43:49.976Z,4.22
2023-06-19T06:45:22.253Z,4.60
2023-06-19T06:46:54.453Z,4.35
2023-06-19T06:48:26.613Z,5.03
2023-06-19T06:49:58.785Z,4.88
2023-06-19T06:51:31.049Z,5.15
2023-06-19T06:53:03.265Z,5.05
2023-06-19T06:54:35.560Z,4.18
2023-06-19T06:56:07.756Z,4.93
2023-06-19T06:57:40.123Z,4.55
2023-06-19T06:59:12.288Z,4.60
2023-06-19T07:00:44.657Z,4.45
2023-06-19T07:02:16.944Z,4.57
2023-06-19T07:14:39.302Z,4.50
2023-06-19T07:16:11.583Z,4.60
2023-06-19T07:17:45.688Z,4.57
2023-06-19T07:19:18.025Z,4.43
2023-06-19T07:20:50.291Z,4.38
2023-06-19T07:40:08.152Z,4.45
2023-06-19T07:41:40.595Z,4.47
2023-06-19T07:43:12.792Z,4.75
2023-06-19T07:44:47.651Z,4.40
2023-06-19T07:46:19.777Z,4.28
2023-06-19T07:47:58.714Z,4.25
2023-06-19T07:49:30.896Z,3.92
2023-06-19T07:51:03.102Z,4.07
2023-06-19T07:52:35.554Z,5.25
2023-06-19T07:54:07.766Z,4.00
2023-06-19T07:55:39.902Z,4.28
2023-06-19T07:57:12.099Z,4.40
2023-06-19T07:58:44.242Z,4.55
2023-06-19T08:00:16.632Z,4.75
2023-06-19T08:01:48.784Z,5.30
2023-06-19T08:03:21.160Z,4.60
2023-06-19T08:04:53.399Z,4.60
2023-06-19T08:06:25.785Z,4.35
2023-06-19T08:08:00.817Z,4.70
2023-06-19T08:09:33.337Z,4.32
2023-06-19T08:11:05.866Z,5.03
2023-06-19T08:12:38.189Z,5.13
2023-06-19T08:14:10.383Z,4.90
2023-06-19T08:15:42.848Z,4.35
2023-06-19T08:17:15.358Z,5.28
2023-06-19T08:18:48.033Z,4.75
2023-06-19T08:20:21.549Z,5.03
2023-06-19T08:21:53.756Z,5.38
2023-06-19T08:23:25.916Z,4.45
2023-06-19T08:24:58.117Z,4.47
2023-06-19T08:26:30.264Z,4.18
2023-06-19T08:28:02.430Z,4.70
2023-06-19T08:29:35.082Z,4.65
2023-06-19T08:31:07.320Z,4.55
2023-06-19T08:32:39.528Z,4.95
2023-06-19T08:34:11.791Z,4.30
2023-06-19T08:35:45.346Z,4.53
2023-06-19T08:37:19.838Z,4.63
2023-06-19T08:38:53.882Z,5.32
2023-06-19T08:40:26.633Z,5.00
2023-06-19T08:41:59.229Z,5.50
2023-06-19T08:43:31.391Z,5.35
2023-06-19T08:45:03.716Z,7.43
2023-06-19T08:46:38.614Z,5.53
2023-06-19T08:48:15.284Z,5.45
2023-06-19T08:49:48.084Z,5.55
2023-06-19T08:51:20.252Z,5.70
2023-06-19T08:52:55.008Z,5.22
2023-06-19T08:56:10.711Z,4.85
2023-06-19T08:57:42.876Z,5.32
2023-06-19T08:59:16.886Z,4.65
2023-06-19T09:00:49.219Z,4.63
2023-06-19T09:02:21.908Z,5.10
2023-06-19T09:03:55.432Z,5.30
2023-06-19T09:05:27.804Z,5.00
2023-06-19T09:07:05.270Z,4.93
2023-06-19T09:08:38.985Z,5.28
2023-06-19T09:10:19.881Z,5.57
2023-06-19T09:12:01.121Z,5.20
2023-06-19T09:13:34.082Z,5.22
2023-06-19T09:15:13.924Z,5.30
2023-06-19T09:16:46.121Z,5.70
2023-06-19T09:18:18.505Z,6.27
2023-06-19T09:19:52.302Z,5.60
2023-06-19T09:21:27.465Z,5.72
2023-06-19T09:51:34.716Z,11.57
2023-06-19T09:58:40.217Z,5.57
2023-06-19T10:00:18.456Z,5.65
2023-06-19T10:04:44.824Z,6.20
2023-06-19T10:15:36.390Z,5.80
2023-06-19T10:17:11.772Z,4.63
2023-06-19T10:25:37.910Z,5.60
2023-06-19T10:27:11.814Z,5.50
2023-06-19T10:28:48.029Z,5.72
2023-06-19T10:30:21.344Z,5.47
2023-06-19T10:31:53.905Z,5.68
2023-06-19T10:33:28.533Z,5.40
2023-06-19T10:35:00.608Z,5.35
2023-06-19T10:36:33.432Z,5.93
2023-06-19T10:38:06.186Z,5.65
2023-06-19T10:39:38.361Z,5.80
2023-06-19T10:41:18.782Z,5.27
2023-06-19T10:42:51.133Z,5.40
2023-06-19T10:44:26.409Z,5.35
2023-06-19T10:45:58.645Z,5.60
2023-06-19T10:47:30.904Z,5.28
2023-06-19T10:49:06.026Z,5.20
2023-06-19T10:50:44.179Z,5.28
2023-06-19T10:52:17.519Z,4.82
2023-06-19T10:53:49.656Z,4.88
2023-06-19T10:55:22.492Z,5.10
2023-06-19T10:56:55.980Z,5.10
2023-06-19T10:58:29.633Z,5.00
2023-06-19T11:00:01.866Z,5.30
2023-06-19T11:01:38.853Z,4.95
2023-06-19T11:03:11.176Z,4.95
2023-06-19T11:04:43.422Z,4.78
2023-06-19T11:06:22.210Z,4.80
2023-06-19T11:07:59.345Z,4.80
2023-06-19T11:09:32.534Z,5.45
2023-06-19T11:11:04.734Z,5.35
2023-06-19T11:12:36.998Z,4.77
2023-06-19T11:14:10.246Z,4.85
2023-06-19T11:15:43.789Z,4.90
2023-06-19T11:17:16.767Z,5.45
2023-06-19T11:20:21.066Z,4.68
2023-06-19T11:21:53.960Z,5.05
2023-06-19T11:23:31.820Z,5.50
2023-06-19T11:25:05.549Z,5.55
2023-06-19T11:26:45.435Z,5.07
2023-06-19T11:28:27.309Z,5.20
2023-06-19T11:30:01.880Z,5.28
2023-06-19T11:44:13.116Z,5.95
2023-06-19T11:45:53.070Z,6.03
2023-06-19T11:47:25.458Z,5.40
2023-06-19T11:49:20.102Z,5.97
2023-06-19T11:50:53.415Z,5.85
2023-06-19T11:52:25.803Z,6.15
2023-06-19T11:53:57.964Z,5.57
2023-06-19T11:55:30.203Z,6.23
2023-06-19T11:57:02.423Z,5.63
2023-06-19T12:34:01.648Z,5.00
2023-06-19T12:35:42.381Z,5.07
2023-06-19T12:37:20.402Z,4.32
2023-06-19T12:38:55.588Z,4.63
2023-06-19T12:40:27.994Z,4.32
2023-06-19T12:42:00.578Z,3.95
2023-06-19T12:43:35.589Z,4.13
2023-06-19T12:45:08.355Z,3.95
2023-06-19T12:46:41.159Z,3.97
2023-06-19T13:34:31.443Z,3.90
2023-06-19T13:36:03.778Z,3.78
2023-06-19T13:37:36.882Z,3.83
2023-06-19T13:40:41.352Z,3.65
2023-06-19T13:42:14.191Z,3.60
2023-06-19T13:43:47.386Z,3.65
2023-06-19T13:45:19.573Z,4.30
2023-06-19T13:46:51.831Z,4.33
2023-06-19T13:48:24.073Z,3.47
2023-06-19T13:49:56.420Z,3.80
2023-06-19T13:51:28.707Z,3.97
2023-06-19T15:46:18.374Z,3.65
2023-06-19T15:47:50.781Z,3.50
2023-06-19T15:49:22.890Z,3.50
2023-06-19T15:50:55.105Z,3.58
2023-06-19T15:52:28.543Z,3.90
2023-06-19T15:54:00.692Z,4.13
2023-06-19T15:55:33.307Z,4.77
2023-06-19T15:57:05.723Z,3.80
2023-06-19T15:58:38.056Z,6.22
2023-06-19T16:00:12.416Z,4.63
2023-06-19T16:01:44.845Z,5.05
2023-06-19T16:03:17.127Z,5.55
2023-06-19T16:04:49.467Z,5.25
2023-06-19T16:06:21.651Z,3.83
2023-06-19T16:07:54.290Z,4.28
2023-06-19T16:09:27.613Z,3.67
2023-06-19T16:11:00.003Z,4.15
2023-06-19T16:12:32.202Z,5.23
2023-06-19T16:14:04.371Z,5.33
2023-06-19T16:15:36.763Z,5.97
2023-06-19T16:17:08.907Z,5.88
2023-06-19T16:18:41.039Z,6.30
2023-06-19T16:20:13.481Z,4.87
2023-06-19T16:21:45.778Z,5.57
2023-06-19T16:23:18.035Z,5.47
2023-06-19T16:24:50.183Z,5.15
2023-06-19T16:26:22.378Z,5.05
2023-06-19T16:27:54.942Z,4.95
2023-06-19T16:29:27.077Z,4.50
2023-06-19T16:30:59.262Z,4.18
2023-06-19T16:32:31.531Z,4.20
2023-06-19T16:34:03.933Z,4.07
2023-06-19T16:35:36.052Z,4.03
2023-06-19T16:37:08.334Z,3.67
2023-06-19T16:38:40.622Z,4.05
2023-06-19T16:40:13.012Z,3.80
2023-06-19T16:41:46.944Z,3.90
2023-06-19T16:43:19.184Z,3.70
2023-06-19T16:44:51.549Z,4.00
2023-06-19T16:46:23.808Z,3.83
2023-06-19T16:47:56.357Z,3.65
2023-06-19T16:49:28.607Z,3.50
2023-06-19T16:51:00.863Z,3.90
2023-06-19T16:52:33.114Z,3.60
2023-06-19T16:54:05.435Z,3.53
2023-06-19T16:55:37.635Z,3.72
2023-06-19T16:57:09.935Z,3.90
2023-06-19T17:02:02.713Z,4.18
2023-06-19T17:03:34.930Z,4.32
2023-06-19T17:05:07.455Z,4.30
2023-06-19T17:09:52.883Z,4.18
2023-06-19T17:11:28.101Z,3.60
2023-06-19T17:13:00.377Z,4.65
2023-06-19T17:14:32.519Z,4.43
2023-06-19T17:16:04.827Z,4.80
2023-06-19T17:17:37.148Z,4.35
2023-06-19T17:19:09.329Z,4.15
2023-06-19T17:20:42.996Z,4.45
2023-06-19T17:22:15.306Z,5.07
2023-06-19T17:23:48.352Z,5.10
2023-06-19T17:25:20.598Z,4.60
2023-06-19T17:26:58.674Z,5.50
2023-06-19T17:28:31.001Z,6.00
2023-06-19T17:30:03.812Z,7.03
2023-06-19T17:31:36.242Z,6.97
2023-06-19T17:33:11.074Z,5.57
2023-06-19T17:34:43.264Z,4.50
2023-06-19T17:36:15.365Z,5.30
2023-06-19T17:37:47.594Z,4.38
2023-06-19T17:39:19.770Z,4.03
2023-06-19T17:40:51.979Z,4.10
2023-06-19T17:42:24.486Z,4.80
2023-06-19T17:43:56.592Z,4.80
2023-06-19T17:45:28.771Z,4.20
2023-06-19T17:47:01.013Z,4.60
2023-06-19T17:48:33.133Z,5.07
2023-06-19T17:50:05.705Z,4.50
2023-06-19T17:51:37.920Z,4.60
2023-06-19T17:53:11.369Z,4.67
2023-06-19T17:54:46.273Z,4.28
2023-06-19T17:56:19.357Z,4.82
2023-06-19T17:59:23.556Z,4.70
2023-06-19T18:00:55.729Z,4.50
2023-06-19T18:02:29.190Z,4.38
2023-06-19T18:04:01.421Z,4.70
2023-06-19T18:05:33.640Z,4.35
2023-06-19T18:07:06.165Z,4.72
2023-06-19T18:08:38.347Z,4.57
2023-06-19T18:10:13.711Z,4.97
2023-06-19T18:11:47.834Z,3.88
2023-06-19T18:13:20.030Z,4.40
2023-06-19T18:14:52.264Z,4.43
2023-06-19T18:16:24.544Z,4.55
2023-06-19T18:17:56.871Z,5.13
2023-06-19T18:19:30.091Z,5.07
2023-06-19T18:22:34.481Z,4.75
2023-06-19T18:31:35.650Z,4.43
2023-06-19T18:33:08.460Z,4.40
2023-06-19T18:34:40.712Z,5.10
2023-06-19T18:41:10.127Z,4.57
2023-06-19T18:42:42.560Z,4.47
2023-06-19T18:44:14.704Z,4.85
2023-06-19T18:45:46.977Z,4.80
2023-06-19T18:47:19.155Z,4.47
2023-06-19T18:48:51.260Z,4.75
2023-06-19T18:50:25.541Z,4.82
2023-06-19T18:51:57.863Z,4.97
2023-06-19T20:13:27.182Z,5.28
2023-06-19T20:14:59.627Z,5.00
2023-06-19T20:16:32.423Z,5.03
2023-06-19T20:18:04.826Z,4.97
2023-06-19T20:19:36.961Z,5.18
2023-06-19T20:21:09.120Z,5.35
2023-06-19T20:22:41.333Z,5.05
2023-06-19T20:24:13.514Z,5.00
2023-06-19T20:25:46.664Z,5.32
2023-06-19T20:27:18.875Z,5.32
2023-06-19T20:28:51.342Z,5.00
2023-06-19T20:30:25.583Z,5.47
2023-06-19T20:31:57.870Z,5.35
2023-06-19T20:33:30.078Z,5.20
2023-06-19T20:35:02.440Z,5.05
2023-06-19T20:36:34.748Z,5.47
2023-06-19T20:38:07.028Z,5.35
2023-06-19T20:39:39.320Z,4.50
2023-06-19T20:42:45.911Z,9.18
2023-06-19T20:44:19.042Z,4.70
2023-06-19T20:45:51.135Z,5.30
2023-06-19T20:47:23.809Z,5.15
2023-06-19T20:48:55.984Z,5.40
2023-06-19T20:50:28.382Z,5.43
2023-06-19T20:52:00.794Z,5.13
2023-06-19T20:53:32.864Z,5.35
2023-06-19T20:55:07.453Z,5.70
2023-06-19T20:56:39.884Z,4.93
2023-06-19T20:58:12.376Z,5.50
2023-06-19T20:59:44.630Z,5.07
2023-06-19T21:01:16.823Z,5.38
2023-06-19T21:02:49.297Z,5.00
2023-06-19T21:04:21.459Z,4.60
2023-06-19T21:05:53.732Z,5.22
2023-06-19T21:07:25.923Z,5.55
2023-06-19T21:09:00.760Z,5.20
2023-06-19T21:10:33.177Z,5.20
2023-06-19T21:12:05.778Z,5.13
2023-06-19T21:13:37.952Z,5.38
2023-06-19T21:15:10.558Z,5.10
2023-06-19T21:16:43.038Z,5.38
2023-06-19T21:18:16.887Z,5.63
2023-06-19T21:19:49.127Z,5.20
2023-06-19T21:21:21.422Z,5.40
2023-06-19T21:22:54.418Z,5.63
2023-06-19T21:25:59.557Z,5.50
2023-06-19T21:27:31.815Z,5.73
2023-06-19T21:29:04.018Z,5.28
2023-06-19T21:30:36.418Z,5.80
2023-06-19T21:32:09.263Z,5.57
2023-06-19T21:33:42.411Z,6.05
2023-06-19T21:35:14.526Z,5.32
2023-06-19T21:36:46.679Z,5.88
2023-06-19T21:38:19.298Z,5.53
2023-06-19T21:39:51.599Z,5.60
2023-06-19T21:46:17.025Z,5.28
2023-06-19T21:47:51.162Z,5.43
2023-06-19T21:49:23.795Z,5.15
2023-06-19T21:50:56.428Z,5.40
2023-06-19T21:52:29.013Z,4.60
2023-06-19T21:54:01.656Z,4.53
2023-06-19T21:55:33.793Z,5.22
2023-06-19T21:57:06.359Z,5.50
2023-06-19T21:58:38.456Z,5.07
2023-06-19T22:00:13.565Z,5.43
2023-06-19T22:01:45.725Z,5.40
2023-06-19T22:03:18.073Z,5.70
2023-06-19T22:04:50.212Z,4.97
2023-06-19T22:06:22.466Z,5.22
2023-06-19T22:07:55.192Z,4.80
2023-06-19T22:09:27.413Z,5.72
2023-06-19T22:10:59.874Z,5.38
2023-06-19T22:12:32.097Z,5.50
2023-06-19T22:14:04.275Z,5.28
2023-06-19T22:15:36.379Z,5.28
2023-06-19T22:17:09.182Z,4.90
2023-06-19T22:18:41.998Z,5.57
2023-06-19T22:20:20.347Z,5.65
2023-06-19T22:21:52.533Z,5.30
2023-06-19T22:23:24.771Z,5.63
2023-06-19T22:24:56.944Z,5.40
2023-06-19T22:26:29.044Z,5.30
2023-06-19T22:28:01.343Z,5.05
2023-06-19T22:29:33.845Z,5.10
2023-06-19T22:31:07.895Z,5.13
2023-06-19T22:32:40.406Z,5.60
2023-06-19T22:34:12.845Z,5.68
2023-06-19T22:35:45.051Z,5.60
2023-06-19T22:37:18.998Z,5.70
2023-06-19T22:38:51.646Z,5.90
2023-06-19T22:40:24.316Z,5.28
2023-06-19T22:41:56.684Z,5.40
2023-06-19T22:43:28.876Z,5.03
2023-06-19T22:45:01.550Z,5.70
2023-06-19T22:46:34.053Z,5.57
2023-06-19T22:51:09.573Z,5.13
2023-06-19T22:52:42.017Z,5.10
2023-06-19T22:54:14.229Z,5.68
2023-06-19T22:55:46.381Z,5.57
2023-06-19T22:57:18.509Z,5.43
2023-06-19T22:58:50.688Z,5.32
2023-06-19T23:00:22.843Z,4.85
2023-06-19T23:01:55.056Z,5.30
2023-06-19T23:03:27.324Z,5.13
2023-06-19T23:04:59.741Z,5.13
2023-06-19T23:06:32.364Z,5.47
2023-06-19T23:08:04.730Z,5.15
2023-06-19T23:09:36.854Z,5.38
2023-06-19T23:11:10.154Z,5.32
2023-06-19T23:14:14.843Z,5.20
2023-06-19T23:15:46.910Z,5.57
2023-06-19T23:17:22.036Z,4.80
2023-06-19T23:18:54.147Z,5.18
2023-06-19T23:20:26.308Z,5.38
2023-06-19T23:21:58.376Z,5.20
2023-06-19T23:23:31.886Z,5.68
2023-06-19T23:25:04.145Z,5.65
2023-06-19T23:26:36.256Z,5.97
2023-06-19T23:28:08.366Z,5.20
2023-06-19T23:29:40.505Z,5.45
2023-06-19T23:31:12.805Z,5.63
2023-06-19T23:32:44.903Z,4.85
2023-06-19T23:34:17.116Z,5.35
2023-06-19T23:46:21.874Z,4.88
2023-06-19T23:47:55.164Z,4.78
2023-06-19T23:50:59.471Z,5.40
2023-06-19T23:52:42.834Z,4.80
2023-06-19T23:54:16.291Z,5.47
2023-06-19T23:55:48.515Z,5.25
2023-06-19T23:57:20.673Z,4.95
2023-06-19T23:58:53.111Z,5.60
